SKBG/BGA METAR and TAF weather

Enter ICAO airport designator
Station Type Date Time Source
SKBG METAR 2021/04/18 02:00 UTC NOAA

SKBG 180200Z 20003KT 2000 BCFG BKN005 SCT070 20/20 Q1016 RETSRA RMK A3001


Station Type Date Time Source
SKBG Decoded METAR 2021/04/18 02:00 UTC NOAA

Bucaramanga / Palonegro, Colombia (SKBG) 07-06N 073-12W
Apr 17, 2021 - 10:00 PM EDT / 2021.04.18 0200 UTC
Wind: from the SSW (200 degrees) at 3 MPH (3 KT):0
Visibility: 1 mile(s):0
Sky conditions: mostly cloudy
Weather: patches of fog; rain with thunder during the past hour
Temperature: 68 F (20 C)
Dew Point: 68 F (20 C)
Relative Humidity: 100%
Pressure (altimeter): 30.00 in. Hg (1016 hPa)
ob: SKBG 180200Z 20003KT 2000 BCFG BKN005 SCT070 20/20 Q1016 RETSRA RMK A3001
cycle: 2

Station Type Date Time Source
SKBG TAF 2021/04/17 18:48 UTC NOAA

TAF TAF SKBG 171630Z 1718/1818 31004KT 9999 SCT015 SCT080
TEMPO 1722/1704 5000 DZRA SCT012TCU
BECMG 1704/1706 VRB02KT SCT010
TEMPO 1708/1714 3000 BCFG SCT006
BECMG 1715/1717 32007KT SCT015 TX28/1719Z TN19/1810Z

Example: see airport list